createdAt,value
2019-02-16T00:02:26.735Z,17.27
2019-02-16T00:04:55.151Z,10.53
2019-02-16T00:07:23.591Z,11.07
2019-02-16T00:09:52.011Z,14.13
2019-02-16T00:12:20.427Z,8.20
2019-02-16T00:14:48.931Z,9.37
2019-02-16T00:17:17.355Z,11.43
2019-02-16T00:19:45.765Z,9.33
2019-02-16T00:22:14.190Z,12.77
2019-02-16T00:24:42.672Z,10.67
2019-02-16T00:27:11.083Z,12.07
2019-02-16T00:29:39.506Z,12.20
2019-02-16T00:32:07.951Z,10.53
2019-02-16T00:34:36.368Z,7.70
2019-02-16T00:37:04.816Z,9.73
2019-02-16T00:39:33.251Z,9.30
2019-02-16T00:42:01.675Z,10.10
2019-02-16T00:44:30.411Z,8.37
2019-02-16T00:46:58.760Z,12.43
2019-02-16T00:49:27.193Z,9.00
2019-02-16T00:51:55.682Z,11.08
2019-02-16T00:54:24.143Z,8.10
2019-02-16T00:56:52.542Z,8.77
2019-02-16T00:59:20.951Z,8.27
2019-02-16T01:01:49.392Z,9.23
2019-02-16T01:04:17.828Z,9.28
2019-02-16T01:06:46.235Z,10.47
2019-02-16T01:09:14.751Z,7.53
2019-02-16T01:11:43.161Z,9.27
2019-02-16T01:14:11.591Z,8.27
2019-02-16T01:16:40.015Z,8.57
2019-02-16T01:19:08.455Z,8.70
2019-02-16T01:21:36.868Z,8.53
2019-02-16T01:24:05.303Z,8.37
2019-02-16T01:26:33.720Z,7.30
2019-02-16T01:29:02.150Z,7.97
2019-02-16T01:31:30.577Z,9.83
2019-02-16T01:33:59.014Z,7.67
2019-02-16T01:36:27.419Z,9.07
2019-02-16T01:38:55.872Z,7.90
2019-02-16T01:41:24.270Z,9.43
2019-02-16T01:43:52.705Z,8.10
2019-02-16T01:46:21.179Z,7.90
2019-02-16T01:48:49.604Z,9.10
2019-02-16T01:51:18.146Z,8.43
2019-02-16T01:53:46.557Z,8.13
2019-02-16T01:56:14.990Z,11.33
2019-02-16T01:58:43.406Z,8.70
2019-02-16T02:01:11.857Z,9.97
2019-02-16T02:03:40.270Z,10.32
2019-02-16T02:06:08.718Z,8.77
2019-02-16T02:08:37.136Z,6.83
2019-02-16T02:11:06.071Z,8.50
2019-02-16T02:13:34.488Z,8.27
2019-02-16T02:16:03.189Z,9.93
2019-02-16T02:18:31.609Z,7.97
2019-02-16T02:21:00.044Z,6.23
2019-02-16T02:23:28.482Z,9.60
2019-02-16T02:25:56.895Z,8.33
2019-02-16T02:28:25.334Z,6.10
2019-02-16T02:30:53.746Z,7.65
2019-02-16T02:33:22.200Z,7.87
2019-02-16T02:35:50.584Z,8.07
2019-02-16T02:38:18.996Z,8.35
2019-02-16T02:40:47.416Z,7.13
2019-02-16T02:43:15.834Z,7.23
2019-02-16T02:45:44.366Z,8.97
2019-02-16T02:48:12.779Z,7.87
2019-02-16T02:50:41.190Z,8.27
2019-02-16T02:53:09.614Z,7.60
2019-02-16T02:55:38.020Z,8.43
2019-02-16T02:58:06.466Z,6.73
2019-02-16T03:00:34.972Z,7.00
2019-02-16T03:03:03.412Z,8.03
2019-02-16T03:05:31.820Z,7.23
2019-02-16T03:08:00.239Z,7.70
2019-02-16T03:10:28.650Z,6.73
2019-02-16T03:12:57.082Z,8.17
2019-02-16T03:15:25.517Z,7.30
2019-02-16T03:17:53.935Z,6.07
2019-02-16T03:20:30.277Z,8.27
2019-02-16T03:23:18.430Z,7.57
2019-02-16T03:25:52.728Z,6.93
2019-02-16T03:28:29.943Z,6.70
2019-02-16T03:31:16.404Z,6.90
2019-02-16T03:33:50.971Z,6.47
2019-02-16T03:36:22.451Z,7.13
2019-02-16T03:38:56.894Z,8.97
2019-02-16T03:41:25.302Z,6.97
2019-02-16T03:43:53.750Z,6.83
2019-02-16T03:46:22.186Z,7.40
2019-02-16T03:48:50.590Z,5.57
2019-02-16T03:51:19.041Z,7.40
2019-02-16T03:53:47.491Z,6.40
2019-02-16T03:56:15.925Z,6.70
2019-02-16T03:58:44.360Z,6.33
2019-02-16T04:01:12.762Z,7.63
2019-02-16T04:03:41.211Z,9.70
2019-02-16T04:06:09.631Z,7.47
2019-02-16T04:08:38.071Z,6.33
2019-02-16T04:11:06.470Z,7.93
2019-02-16T04:13:34.923Z,7.00
2019-02-16T04:16:03.366Z,5.55
2019-02-16T04:18:31.748Z,6.30
2019-02-16T04:21:00.165Z,6.13
2019-02-16T04:23:28.594Z,7.90
2019-02-16T04:25:57.027Z,6.30
2019-02-16T04:28:25.447Z,7.50
2019-02-16T04:30:53.880Z,5.83
2019-02-16T04:33:22.291Z,7.33
2019-02-16T04:35:50.745Z,7.10
2019-02-16T04:38:19.186Z,7.40
2019-02-16T04:40:47.594Z,6.75
2019-02-16T04:43:16.113Z,9.20
2019-02-16T04:45:44.548Z,8.00
2019-02-16T04:48:12.960Z,6.37
2019-02-16T04:50:41.379Z,7.70
2019-02-16T04:53:09.787Z,6.57
2019-02-16T04:55:38.222Z,6.47
2019-02-16T04:58:06.635Z,6.87
2019-02-16T05:00:35.083Z,6.37
2019-02-16T05:03:03.507Z,6.37
2019-02-16T05:05:31.951Z,7.70
2019-02-16T05:08:00.355Z,7.15
2019-02-16T05:10:28.771Z,5.63
2019-02-16T05:12:57.191Z,6.53
2019-02-16T05:15:25.606Z,7.43
2019-02-16T05:17:54.043Z,7.73
2019-02-16T05:20:22.454Z,6.93
2019-02-16T05:22:50.882Z,7.58
2019-02-16T05:25:19.283Z,6.13
2019-02-16T05:27:47.829Z,6.53
2019-02-16T05:30:16.234Z,5.90
2019-02-16T05:32:44.642Z,5.63
2019-02-16T05:35:13.166Z,7.37
2019-02-16T05:37:41.593Z,6.40
2019-02-16T05:40:10.162Z,6.47
2019-02-16T05:42:38.564Z,6.63
2019-02-16T05:45:07.555Z,5.53
2019-02-16T05:47:35.956Z,7.07
2019-02-16T05:50:04.731Z,6.27
2019-02-16T05:52:33.145Z,6.83
2019-02-16T05:55:01.579Z,8.13
2019-02-16T05:57:29.973Z,7.40
2019-02-16T05:59:58.403Z,7.67
2019-02-16T06:02:26.807Z,6.60
2019-02-16T06:04:55.250Z,6.23
2019-02-16T06:07:23.687Z,5.60
2019-02-16T06:09:52.113Z,6.00
2019-02-16T06:12:20.541Z,7.00
2019-02-16T06:14:48.977Z,7.37
2019-02-16T06:17:17.423Z,7.30
2019-02-16T06:19:45.850Z,7.53
2019-02-16T06:22:14.267Z,6.22
2019-02-16T06:24:42.693Z,6.63
2019-02-16T06:27:11.099Z,8.23
2019-02-16T06:29:39.535Z,6.17
2019-02-16T06:32:07.969Z,7.23
2019-02-16T06:34:36.404Z,6.57
2019-02-16T06:37:06.489Z,6.87
2019-02-16T06:39:34.929Z,6.00
2019-02-16T06:42:03.352Z,6.67
2019-02-16T06:44:31.804Z,7.08
2019-02-16T06:47:00.236Z,7.33
2019-02-16T06:49:28.632Z,6.63
2019-02-16T06:51:57.074Z,6.60
2019-02-16T06:54:25.499Z,6.43
2019-02-16T06:57:01.321Z,6.57
2019-02-16T06:59:29.762Z,6.13
2019-02-16T07:01:58.159Z,6.40
2019-02-16T07:04:26.607Z,6.12
2019-02-16T07:06:55.019Z,7.53
2019-02-16T07:09:23.435Z,6.73
2019-02-16T07:11:51.861Z,6.33
2019-02-16T07:14:20.313Z,8.13
2019-02-16T07:17:02.372Z,6.23
2019-02-16T07:19:32.459Z,7.90
2019-02-16T07:22:00.907Z,5.87
2019-02-16T07:24:29.305Z,6.83
2019-02-16T07:26:57.767Z,7.25
2019-02-16T07:29:26.255Z,6.07
2019-02-16T07:31:54.703Z,5.80
2019-02-16T07:34:23.157Z,6.07
2019-02-16T07:36:51.573Z,6.30
2019-02-16T07:39:19.989Z,7.60
2019-02-16T07:41:48.431Z,6.10
2019-02-16T07:44:33.124Z,6.47
2019-02-16T07:47:03.196Z,6.70
2019-02-16T07:49:33.244Z,5.08
2019-02-16T07:52:03.316Z,5.93
2019-02-16T07:54:36.341Z,6.67
2019-02-16T07:57:06.407Z,6.83
2019-02-16T07:59:45.148Z,5.37
2019-02-16T08:02:18.222Z,5.83
2019-02-16T08:05:06.454Z,6.95
2019-02-16T08:07:39.448Z,5.80
2019-02-16T08:10:18.350Z,5.87
2019-02-16T08:13:03.591Z,6.25
2019-02-16T08:15:33.662Z,6.35
2019-02-16T08:18:06.147Z,6.80
2019-02-16T08:20:41.940Z,6.73
2019-02-16T08:23:30.113Z,5.80
2019-02-16T08:26:05.635Z,5.67
2019-02-16T08:28:41.236Z,6.20
2019-02-16T08:31:11.313Z,5.90
2019-02-16T08:33:44.132Z,5.15
2019-02-16T08:36:31.457Z,5.40
2019-02-16T08:39:16.663Z,5.20
2019-02-16T08:41:58.563Z,5.70
2019-02-16T08:44:34.686Z,6.75
2019-02-16T08:47:21.296Z,5.78
2019-02-16T08:50:09.365Z,5.10
2019-02-16T08:52:45.372Z,4.97
2019-02-16T08:55:15.407Z,6.15
2019-02-16T08:57:48.144Z,6.65
2019-02-16T09:00:24.367Z,5.17
2019-02-16T09:03:00.248Z,5.15
2019-02-16T09:05:32.887Z,10.05
2019-02-16T09:08:15.065Z,10.80
2019-02-16T09:10:51.141Z,10.97
2019-02-16T09:13:21.217Z,14.43
2019-02-16T09:15:51.293Z,15.57
2019-02-16T09:18:33.610Z,16.30
2019-02-16T09:21:15.435Z,13.97
2019-02-16T09:23:59.146Z,22.10
2019-02-16T09:26:35.206Z,15.97
2019-02-16T09:29:05.290Z,17.93
2019-02-16T09:31:44.104Z,16.27
2019-02-16T09:34:26.454Z,12.97
2019-02-16T09:36:56.521Z,12.97
2019-02-16T09:39:42.795Z,18.80
